Alexander Bay, South Africa
Current Conditions -  °F | °C
As of 1:00 PM on Friday 24 Oct 2014 (Local Time) from FAUP Reporting Station
Clear Clear  
Wind Chill: 88°   Ceiling: Unl
Heat Index: 88°   Visibility: 6mi
Dew Point: 41°   Wind: 2mph
Humidity: 19%   Direction: 200°SSW
Pressure: 29.91"   Gusts: NA
Location:  28.6°S, 16.49°E
Report Text: FAUP 241100Z 20002KT CAVOK 31/05 Q1013 NOSIG
Loading
Personal Weather Stations






























Interactive Weather Map
Tropical Storm Tracking
New forecast layout! Learn more

10-Day Weather Forecast

Advertisements
Track Severe Weather on mobile